Time;durP1;ratioP1;P1;durP2;ratioP2;P2;SDS_P1;SDS_P2;PMS_P1;PMS_P2;Temp;Humidity;BMP_temperature;BMP_pressure;BME280_temperature;BME280_humidity;BME280_pressure;Samples;Min_cycle;Max_cycle;Signal;HPM_P1;HPM_P2
2023/12/06 00:01:59;;;;;;;0.00;0.00;;;7.20;79.20;;;;;;5066686;28;20887;-25
2023/12/06 00:04:27;;;;;;;0.00;0.00;;;7.20;79.20;;;;;;5064454;28;20226;-25
2023/12/06 00:07:01;;;;;;;0.00;0.00;;;7.20;80.00;;;;;;5065577;28;20241;-25
2023/12/06 00:09:28;;;;;;;0.00;0.00;;;7.20;79.20;;;;;;5064801;28;20202;-25
2023/12/06 00:11:58;;;;;;;0.00;0.00;;;7.20;79.20;;;;;;5064010;28;20195;-25
2023/12/06 00:14:27;;;;;;;0.00;0.00;;;7.20;79.20;;;;;;5066265;28;20200;-25
2023/12/06 00:16:59;;;;;;;0.00;0.00;;;7.20;79.20;;;;;;5064731;28;20194;-25
2023/12/06 00:19:26;;;;;;;0.00;0.00;;;7.20;79.20;;;;;;5066260;28;20677;-25
2023/12/06 00:21:53;;;;;;;0.00;0.00;;;7.20;79.20;;;;;;5064409;28;20231;-25
2023/12/06 00:24:21;;;;;;;0.00;0.00;;;7.20;79.20;;;;;;5050321;28;20658;-25
2023/12/06 00:26:50;;;;;;;0.00;0.00;;;7.20;79.20;;;;;;5048369;28;20581;-25
2023/12/06 00:29:17;;;;;;;0.00;0.00;;;7.20;79.20;;;;;;5049211;28;20204;-25
2023/12/06 00:31:47;;;;;;;0.00;0.00;;;7.20;79.20;;;;;;5048993;28;20224;-25
2023/12/06 00:34:14;;;;;;;0.00;0.00;;;7.20;79.20;;;;;;5046221;28;20303;-25
2023/12/06 00:36:44;;;;;;;0.00;0.00;;;7.20;79.20;;;;;;5043938;28;20674;-25
2023/12/06 00:39:13;;;;;;;0.00;0.00;;;7.20;79.30;;;;;;5045868;28;21009;-25
2023/12/06 00:41:43;;;;;;;0.00;0.00;;;7.30;79.30;;;;;;5044567;28;20250;-25
2023/12/06 00:44:13;;;;;;;0.00;0.00;;;7.30;79.30;;;;;;5044372;28;20486;-25
2023/12/06 00:46:42;;;;;;;0.00;0.00;;;7.30;79.30;;;;;;5045886;28;20192;-26
2023/12/06 00:49:12;;;;;;;0.00;0.00;;;7.30;79.30;;;;;;5046087;28;20207;-25
2023/12/06 00:51:39;;;;;;;0.00;0.00;;;7.30;79.40;;;;;;5045595;28;20345;-25
2023/12/06 00:54:07;;;;;;;0.00;0.00;;;7.30;79.30;;;;;;5044107;28;20227;-25
2023/12/06 00:56:38;;;;;;;0.00;0.00;;;7.30;79.30;;;;;;5043117;28;20304;-25
2023/12/06 00:59:08;;;;;;;0.00;0.00;;;7.30;79.40;;;;;;5043658;28;20265;-25
2023/12/06 01:01:37;;;;;;;0.00;0.00;;;7.30;79.50;;;;;;5043714;28;20204;-25
2023/12/06 01:04:05;;;;;;;0.00;0.00;;;7.30;79.50;;;;;;5045207;28;20274;-25
2023/12/06 01:06:32;;;;;;;0.00;0.00;;;7.30;79.50;;;;;;5045050;28;20838;-25
2023/12/06 01:09:03;;;;;;;0.00;0.00;;;7.30;79.50;;;;;;5044003;28;20219;-25
2023/12/06 01:11:30;;;;;;;0.00;0.00;;;7.30;79.50;;;;;;5044048;28;20192;-25
2023/12/06 01:13:57;;;;;;;0.00;0.00;;;7.30;79.50;;;;;;5045220;28;20216;-25
2023/12/06 01:16:24;;;;;;;0.00;0.00;;;7.40;79.50;;;;;;5026626;28;20199;-25
2023/12/06 01:18:54;;;;;;;0.00;0.00;;;7.40;79.60;;;;;;5047438;28;20212;-25
2023/12/06 01:21:23;;;;;;;0.00;0.00;;;7.40;79.50;;;;;;5048073;28;20314;-26
2023/12/06 01:23:51;;;;;;;0.00;0.00;;;7.40;79.50;;;;;;5048135;28;20259;-25
2023/12/06 01:26:20;;;;;;;0.00;0.00;;;7.40;79.50;;;;;;5045970;28;21001;-25
2023/12/06 01:28:47;;;;;;;0.00;0.00;;;7.40;79.40;;;;;;5046517;28;20219;-25
2023/12/06 01:31:17;;;;;;;0.00;0.00;;;7.40;79.50;;;;;;5047945;28;20200;-26
2023/12/06 01:33:47;;;;;;;0.00;0.00;;;7.40;79.50;;;;;;5048284;28;20205;-25
2023/12/06 01:36:14;;;;;;;0.00;0.00;;;7.40;79.60;;;;;;5043030;28;20326;-25
2023/12/06 01:38:42;;;;;;;0.00;0.00;;;7.40;79.60;;;;;;5043046;28;20913;-25
2023/12/06 01:41:12;;;;;;;0.00;0.00;;;7.50;79.70;;;;;;5042490;28;20246;-26
2023/12/06 01:43:46;;;;;;;0.00;0.00;;;7.50;79.80;;;;;;5044958;28;20745;-25
2023/12/06 01:46:16;;;;;;;0.00;0.00;;;7.50;79.80;;;;;;5043101;28;20567;-25
2023/12/06 01:48:44;;;;;;;0.00;0.00;;;7.50;79.80;;;;;;5044878;28;20582;-25
2023/12/06 01:51:12;;;;;;;0.00;0.00;;;7.50;79.80;;;;;;5042918;28;20291;-25
2023/12/06 01:53:43;;;;;;;0.00;0.00;;;7.60;79.90;;;;;;5042577;28;20197;-25
2023/12/06 01:56:11;;;;;;;0.00;0.00;;;7.60;79.80;;;;;;5045106;28;20204;-25
2023/12/06 01:58:41;;;;;;;0.00;0.00;;;7.60;79.80;;;;;;5048632;28;20970;-25
2023/12/06 02:01:08;;;;;;;0.00;0.00;;;7.60;79.80;;;;;;5051857;28;20566;-25
2023/12/06 02:03:36;;;;;;;0.00;0.00;;;7.60;79.80;;;;;;5047008;28;20212;-25
2023/12/06 02:06:07;;;;;;;0.00;0.00;;;7.70;79.90;;;;;;5061711;28;20231;-25
2023/12/06 02:08:38;;;;;;;0.00;0.00;;;7.70;79.90;;;;;;5049486;28;20590;-26
2023/12/06 02:11:05;;;;;;;0.00;0.00;;;7.70;79.90;;;;;;5060394;28;20219;-26
2023/12/06 02:13:33;;;;;;;0.00;0.00;;;7.70;79.90;;;;;;5053365;28;20215;-26
2023/12/06 02:16:01;;;;;;;0.00;0.00;;;7.70;79.90;;;;;;5053208;28;20223;-25
2023/12/06 02:18:29;;;;;;;0.00;0.00;;;7.80;79.90;;;;;;5065339;28;20219;-25
2023/12/06 02:20:59;;;;;;;0.00;0.00;;;7.80;79.90;;;;;;5067106;28;20199;-25
2023/12/06 02:23:39;;;;;;;0.00;0.00;;;7.80;79.90;;;;;;5065518;28;20227;-25
2023/12/06 02:26:06;;;;;;;0.00;0.00;;;7.80;79.90;;;;;;5066025;28;20256;-25
2023/12/06 02:28:33;;;;;;;0.00;0.00;;;7.80;79.80;;;;;;5064478;28;20195;-25
2023/12/06 02:31:06;;;;;;;0.00;0.00;;;7.80;79.80;;;;;;5064169;28;20199;-25
2023/12/06 02:33:36;;;;;;;0.00;0.00;;;7.80;79.90;;;;;;5066211;28;20199;-25
2023/12/06 02:36:05;;;;;;;0.00;0.00;;;7.80;79.90;;;;;;5062909;28;20226;-25
2023/12/06 02:38:35;;;;;;;0.00;0.00;;;7.80;79.80;;;;;;5046571;28;20218;-25
2023/12/06 02:41:10;;;;;;;0.00;0.00;;;7.80;79.80;;;;;;5063030;28;20223;-25
2023/12/06 02:43:39;;;;;;;0.00;0.00;;;7.90;79.90;;;;;;5063965;28;20337;-25
2023/12/06 02:46:07;;;;;;;0.00;0.00;;;7.90;79.90;;;;;;5062422;28;20198;-25
2023/12/06 02:48:39;;;;;;;0.00;0.00;;;7.90;79.90;;;;;;5063895;28;20298;-25
2023/12/06 02:51:09;;;;;;;0.00;0.00;;;7.90;79.90;;;;;;5062143;28;20249;-26
2023/12/06 02:53:36;;;;;;;0.00;0.00;;;7.90;79.90;;;;;;5064027;28;20204;-25
2023/12/06 02:56:05;;;;;;;0.00;0.00;;;7.90;80.00;;;;;;5063054;28;20200;-25
2023/12/06 02:58:35;;;;;;;0.00;0.00;;;7.90;80.30;;;;;;5065487;28;20233;-26
2023/12/06 03:01:06;;;;;;;0.00;0.00;;;7.90;79.90;;;;;;5065822;28;20197;-25
2023/12/06 03:03:37;;;;;;;0.00;0.00;;;7.90;80.00;;;;;;5064150;28;20230;-25
2023/12/06 03:06:04;;;;;;;0.00;0.00;;;7.90;79.90;;;;;;5062937;28;20302;-25
2023/12/06 03:08:36;;;;;;;0.00;0.00;;;7.90;79.90;;;;;;5070551;28;20204;-25
2023/12/06 03:11:05;;;;;;;0.00;0.00;;;7.90;79.90;;;;;;5068248;28;20192;-25
2023/12/06 03:13:36;;;;;;;0.00;0.00;;;7.90;80.00;;;;;;5070757;28;20204;-25
2023/12/06 03:16:04;;;;;;;0.00;0.00;;;7.90;80.00;;;;;;5070540;28;20589;-25
2023/12/06 03:18:31;;;;;;;0.00;0.00;;;7.90;80.00;;;;;;5070202;28;20210;-25
2023/12/06 03:21:01;;;;;;;0.00;0.00;;;8.00;80.10;;;;;;5069960;28;20269;-26
2023/12/06 03:23:28;;;;;;;0.00;0.00;;;8.00;80.10;;;;;;5067489;28;20698;-25
2023/12/06 03:25:56;;;;;;;0.00;0.00;;;8.00;80.10;;;;;;5068328;28;20215;-25
2023/12/06 03:28:23;;;;;;;0.00;0.00;;;8.00;80.10;;;;;;5069168;28;20561;-26
2023/12/06 03:30:52;;;;;;;0.00;0.00;;;8.00;80.10;;;;;;5068283;28;20656;-25
2023/12/06 03:33:22;;;;;;;0.00;0.00;;;8.00;80.00;;;;;;5068065;28;20596;-25
2023/12/06 03:35:52;;;;;;;0.00;0.00;;;8.00;80.00;;;;;;5065511;28;20211;-25
2023/12/06 03:38:22;;;;;;;0.00;0.00;;;8.00;80.00;;;;;;5065336;28;20195;-25
2023/12/06 03:40:52;;;;;;;0.00;0.00;;;8.00;79.90;;;;;;5064750;28;20257;-25
2023/12/06 03:43:19;;;;;;;0.00;0.00;;;8.00;80.00;;;;;;5065057;28;20211;-25
2023/12/06 03:45:53;;;;;;;0.00;0.00;;;8.00;80.00;;;;;;5065124;28;20195;-25
2023/12/06 03:48:20;;;;;;;0.00;0.00;;;8.10;80.10;;;;;;5065228;28;20278;-25
2023/12/06 03:50:50;;;;;;;0.00;0.00;;;8.00;80.00;;;;;;5066759;28;20204;-25
2023/12/06 03:53:20;;;;;;;0.00;0.00;;;8.10;80.10;;;;;;5066978;28;20203;-25
2023/12/06 03:55:51;;;;;;;0.00;0.00;;;8.10;80.00;;;;;;5066546;28;20199;-25
2023/12/06 03:58:18;;;;;;;0.00;0.00;;;8.10;80.00;;;;;;5066677;28;20286;-25
2023/12/06 04:00:46;;;;;;;0.00;0.00;;;8.10;80.10;;;;;;5055267;28;20209;-25
2023/12/06 04:03:16;;;;;;;0.00;0.00;;;8.10;80.00;;;;;;5049398;28;20208;-25
2023/12/06 04:05:46;;;;;;;0.00;0.00;;;8.10;80.10;;;;;;5047862;28;20243;-25
2023/12/06 04:08:17;;;;;;;0.00;0.00;;;8.10;80.00;;;;;;5049775;28;20223;-25
2023/12/06 04:10:44;;;;;;;0.00;0.00;;;8.10;80.10;;;;;;5049012;28;20219;-25
2023/12/06 04:13:14;;;;;;;0.00;0.00;;;8.10;80.10;;;;;;5049260;28;20196;-25
2023/12/06 04:15:41;;;;;;;0.00;0.00;;;8.10;80.10;;;;;;5049212;28;20296;-25
2023/12/06 04:18:08;;;;;;;0.00;0.00;;;8.10;80.10;;;;;;5049078;28;20204;-25
2023/12/06 04:20:42;;;;;;;0.00;0.00;;;8.10;80.80;;;;;;5049477;28;20307;-25
2023/12/06 04:23:12;;;;;;;0.00;0.00;;;8.10;80.10;;;;;;5049297;28;20223;-25
2023/12/06 04:25:39;;;;;;;0.00;0.00;;;8.10;80.00;;;;;;5049364;28;20266;-25
2023/12/06 04:28:11;;;;;;;0.00;0.00;;;8.10;80.00;;;;;;5047718;28;20196;-25
2023/12/06 04:30:38;;;;;;;0.00;0.00;;;8.10;80.00;;;;;;5048052;28;20212;-25
2023/12/06 04:33:12;;;;;;;0.00;0.00;;;8.10;80.00;;;;;;5046513;28;20943;-26
2023/12/06 04:35:41;;;;;;;0.00;0.00;;;8.10;80.10;;;;;;5046246;28;20254;-25
2023/12/06 04:38:08;;;;;;;0.00;0.00;;;8.10;80.00;;;;;;5047283;28;20698;-25
2023/12/06 04:40:40;;;;;;;0.00;0.00;;;8.10;80.00;;;;;;5046106;28;20761;-25
2023/12/06 04:43:10;;;;;;;0.00;0.00;;;8.10;80.10;;;;;;5045297;28;20204;-25
2023/12/06 04:45:37;;;;;;;0.00;0.00;;;8.10;80.10;;;;;;5045671;28;20702;-25
2023/12/06 04:48:07;;;;;;;0.00;0.00;;;8.10;80.10;;;;;;5045782;28;20278;-25
2023/12/06 04:50:34;;;;;;;0.00;0.00;;;8.10;80.10;;;;;;5043978;28;20292;-25
2023/12/06 04:53:03;;;;;;;0.00;0.00;;;8.10;80.10;;;;;;5045359;28;20196;-25
2023/12/06 04:55:35;;;;;;;0.00;0.00;;;8.10;80.10;;;;;;5058108;28;20335;-25
2023/12/06 04:58:08;;;;;;;0.00;0.00;;;8.10;80.10;;;;;;5051652;28;20246;-25
2023/12/06 05:00:36;;;;;;;0.00;0.00;;;8.10;80.10;;;;;;5046989;28;20575;-25
2023/12/06 05:03:03;;;;;;;0.00;0.00;;;8.10;80.40;;;;;;5048583;28;20208;-25
2023/12/06 05:05:31;;;;;;;0.00;0.00;;;8.10;80.10;;;;;;5046769;28;20817;-25
2023/12/06 05:08:00;;;;;;;0.00;0.00;;;8.10;80.00;;;;;;5045947;28;20355;-25
2023/12/06 05:10:32;;;;;;;0.00;0.00;;;8.10;79.90;;;;;;5045697;28;20319;-25
2023/12/06 05:13:01;;;;;;;0.00;0.00;;;8.00;79.80;;;;;;5044714;28;20204;-25
2023/12/06 05:15:32;;;;;;;0.00;0.00;;;8.00;79.80;;;;;;5043608;28;20267;-25
2023/12/06 05:18:04;;;;;;;0.00;0.00;;;8.00;79.90;;;;;;5043411;28;20222;-25
2023/12/06 05:20:31;;;;;;;0.00;0.00;;;8.00;80.00;;;;;;5043482;28;20657;-25
2023/12/06 05:23:01;;;;;;;0.00;0.00;;;8.00;80.00;;;;;;5044879;28;20314;-25
2023/12/06 05:25:29;;;;;;;0.00;0.00;;;8.00;80.00;;;;;;5043218;28;20216;-25
2023/12/06 05:27:56;;;;;;;0.00;0.00;;;8.00;80.00;;;;;;5043934;28;20193;-25
2023/12/06 05:30:24;;;;;;;0.00;0.00;;;7.90;80.00;;;;;;5042640;28;20345;-25
2023/12/06 05:32:51;;;;;;;0.00;0.00;;;7.90;80.10;;;;;;5044893;28;20562;-25
2023/12/06 05:35:23;;;;;;;0.00;0.00;;;7.90;80.10;;;;;;5043186;28;20232;-25
2023/12/06 05:37:53;;;;;;;0.00;0.00;;;7.90;80.10;;;;;;5044803;28;20292;-25
2023/12/06 05:40:23;;;;;;;0.00;0.00;;;8.00;80.20;;;;;;5044717;28;20214;-25
2023/12/06 05:42:52;;;;;;;0.00;0.00;;;8.00;80.20;;;;;;5052253;28;20208;-25
2023/12/06 05:45:20;;;;;;;0.00;0.00;;;8.00;80.20;;;;;;5043136;28;20508;-25
2023/12/06 05:47:50;;;;;;;0.00;0.00;;;8.00;80.60;;;;;;5056545;28;20645;-25
2023/12/06 05:50:17;;;;;;;0.00;0.00;;;8.00;80.30;;;;;;5050994;28;20203;-25
2023/12/06 05:52:46;;;;;;;0.00;0.00;;;8.00;80.30;;;;;;5045818;28;20577;-26
2023/12/06 05:55:14;;;;;;;0.00;0.00;;;8.00;80.40;;;;;;5047671;28;20207;-25
2023/12/06 05:57:45;;;;;;;0.00;0.00;;;8.00;80.30;;;;;;5060923;28;20215;-25
2023/12/06 06:00:17;;;;;;;0.00;0.00;;;8.00;80.30;;;;;;5065056;28;20210;-25
2023/12/06 06:02:51;;;;;;;0.00;0.00;;;8.00;80.30;;;;;;5062350;28;20215;-25
2023/12/06 06:05:19;;;;;;;0.00;0.00;;;8.00;80.30;;;;;;5050268;28;20284;-25
2023/12/06 06:07:46;;;;;;;0.00;0.00;;;8.00;80.20;;;;;;5049644;28;20971;-25
2023/12/06 06:10:16;;;;;;;0.00;0.00;;;8.00;80.40;;;;;;5052012;28;20196;-25
2023/12/06 06:12:43;;;;;;;0.00;0.00;;;8.00;80.30;;;;;;5053184;28;20287;-25
2023/12/06 06:15:10;;;;;;;0.00;0.00;;;8.10;80.30;;;;;;5052629;28;20565;-25
2023/12/06 06:17:38;;;;;;;0.00;0.00;;;8.10;81.00;;;;;;5053461;28;20203;-25
2023/12/06 06:20:10;;;;;;;0.00;0.00;;;8.10;80.20;;;;;;5058569;28;20665;-26
2023/12/06 06:22:42;;;;;;;0.00;0.00;;;8.00;80.20;;;;;;5062344;28;20208;-25
2023/12/06 06:25:10;;;;;;;0.00;0.00;;;8.10;80.30;;;;;;5055205;28;20220;-26
2023/12/06 06:27:37;;;;;;;0.00;0.00;;;8.10;80.30;;;;;;5075309;28;20682;-26
2023/12/06 06:30:10;;;;;;;0.00;0.00;;;8.10;80.40;;;;;;5055499;28;20195;-26
2023/12/06 06:32:40;;;;;;;0.00;0.00;;;8.10;80.40;;;;;;5052102;28;20316;-26
2023/12/06 06:35:07;;;;;;;0.00;0.00;;;8.10;80.40;;;;;;5032862;28;20582;-26
2023/12/06 06:37:37;;;;;;;0.00;0.00;;;8.10;80.40;;;;;;5062786;28;20298;-26
2023/12/06 06:40:08;;;;;;;0.00;0.00;;;8.10;80.40;;;;;;5060263;28;20227;-26
2023/12/06 06:42:35;;;;;;;0.00;0.00;;;8.10;80.40;;;;;;5053318;28;20220;-26
2023/12/06 06:45:05;;;;;;;0.00;0.00;;;8.10;80.30;;;;;;5053969;28;20347;-26
2023/12/06 06:47:37;;;;;;;0.00;0.00;;;8.10;80.30;;;;;;5060422;28;20207;-25
2023/12/06 06:50:08;;;;;;;0.00;0.00;;;8.10;80.30;;;;;;5069826;28;20670;-25
2023/12/06 06:52:39;;;;;;;0.00;0.00;;;8.10;80.40;;;;;;5069290;28;20693;-26
2023/12/06 06:55:09;;;;;;;0.00;0.00;;;8.20;80.40;;;;;;5067808;28;20199;-26
2023/12/06 06:57:37;;;;;;;0.00;0.00;;;8.20;80.40;;;;;;5066966;28;20282;-26
2023/12/06 07:00:06;;;;;;;0.00;0.00;;;8.20;80.40;;;;;;5067961;28;20207;-26
2023/12/06 07:02:34;;;;;;;0.00;0.00;;;8.20;80.40;;;;;;5064105;28;20222;-26
2023/12/06 07:05:02;;;;;;;0.00;0.00;;;8.20;80.40;;;;;;5055507;28;20216;-26
2023/12/06 07:07:31;;;;;;;0.00;0.00;;;8.20;80.30;;;;;;5046210;28;20208;-25
2023/12/06 07:09:59;;;;;;;0.00;0.00;;;8.20;80.40;;;;;;5046672;28;20211;-26
2023/12/06 07:12:32;;;;;;;0.00;0.00;;;8.20;80.30;;;;;;5055662;28;20643;-26
2023/12/06 07:14:59;;;;;;;0.00;0.00;;;8.20;80.30;;;;;;5059566;28;20302;-26
2023/12/06 07:17:26;;;;;;;0.00;0.00;;;8.20;80.30;;;;;;5050915;28;20210;-26
2023/12/06 07:19:54;;;;;;;0.00;0.00;;;8.20;80.30;;;;;;5050790;28;20193;-26
2023/12/06 07:22:24;;;;;;;0.00;0.00;;;8.20;80.30;;;;;;5049057;28;20631;-26
2023/12/06 07:24:54;;;;;;;0.00;0.00;;;8.20;80.30;;;;;;5064955;28;20284;-25
2023/12/06 07:27:21;;;;;;;0.00;0.00;;;8.20;80.30;;;;;;5063408;28;20218;-26
2023/12/06 07:29:51;;;;;;;0.00;0.00;;;8.20;80.40;;;;;;5050699;28;20565;-26
2023/12/06 07:32:18;;;;;;;0.00;0.00;;;8.20;80.30;;;;;;5055231;28;20196;-26
2023/12/06 07:34:48;;;;;;;0.00;0.00;;;8.20;80.30;;;;;;5066834;28;20323;-26
2023/12/06 07:37:22;;;;;;;0.00;0.00;;;8.20;80.30;;;;;;5058022;28;20298;-26
2023/12/06 07:39:52;;;;;;;0.00;0.00;;;8.20;80.30;;;;;;5047405;28;20196;-26
2023/12/06 07:42:25;;;;;;;0.00;0.00;;;8.10;80.10;;;;;;5053906;28;20607;-25
2023/12/06 07:44:52;;;;;;;0.00;0.00;;;8.10;80.20;;;;;;5049245;28;20220;-26
2023/12/06 07:47:23;;;;;;;0.00;0.00;;;8.10;80.20;;;;;;5061655;28;20231;-26
2023/12/06 07:49:55;;;;;;;0.00;0.00;;;8.10;80.20;;;;;;5063962;28;20222;-26
2023/12/06 07:52:24;;;;;;;0.00;0.00;;;8.10;80.20;;;;;;5050193;28;20316;-26
2023/12/06 07:54:53;;;;;;;0.00;0.00;;;8.10;80.20;;;;;;5064716;28;20638;-26
2023/12/06 07:57:28;;;;;;;0.00;0.00;;;8.10;80.20;;;;;;5065691;28;20700;-25
2023/12/06 07:59:58;;;;;;;0.00;0.00;;;8.10;80.20;;;;;;5069834;28;20231;-25
2023/12/06 08:02:26;;;;;;;0.00;0.00;;;8.00;80.20;;;;;;5066266;28;20918;-26
2023/12/06 08:04:53;;;;;;;0.00;0.00;;;8.00;80.10;;;;;;5065631;28;20280;-26
2023/12/06 08:07:26;;;;;;;0.00;0.00;;;8.00;80.20;;;;;;5051628;28;20224;-26
2023/12/06 08:09:55;;;;;;;0.00;0.00;;;8.00;80.20;;;;;;5047550;28;20221;-26
2023/12/06 08:12:28;;;;;;;0.00;0.00;;;8.00;80.20;;;;;;5048371;28;20265;-26
2023/12/06 08:14:55;;;;;;;0.00;0.00;;;8.00;80.20;;;;;;5054749;28;20203;-25
2023/12/06 08:17:25;;;;;;;0.00;0.00;;;8.00;80.10;;;;;;5049546;28;20259;-26
2023/12/06 08:19:52;;;;;;;0.00;0.00;;;8.00;80.10;;;;;;5049630;28;20216;-26
2023/12/06 08:22:20;;;;;;;0.00;0.00;;;8.00;80.20;;;;;;5054606;28;20218;-26
2023/12/06 08:24:56;;;;;;;0.00;0.00;;;8.00;80.20;;;;;;5069167;28;20207;-26
2023/12/06 08:27:29;;;;;;;0.00;0.00;;;8.00;80.20;;;;;;5059814;28;20577;-26
2023/12/06 08:30:02;;;;;;;0.00;0.00;;;8.00;80.20;;;;;;5048988;28;20240;-26
2023/12/06 08:32:32;;;;;;;0.00;0.00;;;8.00;80.20;;;;;;5054134;28;20723;-26
2023/12/06 08:35:02;;;;;;;0.00;0.00;;;8.00;80.30;;;;;;5069310;28;20200;-26
2023/12/06 08:37:29;;;;;;;0.00;0.00;;;8.00;80.20;;;;;;5065693;28;20200;-26
2023/12/06 08:39:57;;;;;;;0.00;0.00;;;8.00;80.20;;;;;;5066196;28;20707;-25
2023/12/06 08:42:24;;;;;;;0.00;0.00;;;8.00;80.20;;;;;;5046525;28;20207;-26
2023/12/06 08:44:58;;;;;;;0.00;0.00;;;7.90;80.20;;;;;;5047506;28;20250;-26
2023/12/06 08:47:26;;;;;;;0.00;0.00;;;7.90;80.20;;;;;;5052694;28;20200;-26
2023/12/06 08:50:00;;;;;;;0.00;0.00;;;7.90;80.10;;;;;;5056757;28;20204;-26
2023/12/06 08:52:35;;;;;;;0.00;0.00;;;7.90;80.20;;;;;;5051792;28;20204;-26
2023/12/06 08:55:07;;;;;;;0.00;0.00;;;7.90;80.30;;;;;;5047112;28;20212;-26
2023/12/06 08:57:34;;;;;;;0.00;0.00;;;7.90;80.30;;;;;;5066203;28;20231;-25
2023/12/06 09:00:07;;;;;;;0.00;0.00;;;7.90;80.20;;;;;;5065084;28;20235;-26
2023/12/06 09:02:35;;;;;;;0.00;0.00;;;8.00;80.30;;;;;;5061117;28;20226;-26
2023/12/06 09:05:02;;;;;;;0.00;0.00;;;8.00;80.30;;;;;;5049999;28;20239;-26
2023/12/06 09:07:29;;;;;;;0.00;0.00;;;8.00;80.30;;;;;;5066108;28;20553;-26
2023/12/06 09:09:57;;;;;;;0.00;0.00;;;8.00;80.30;;;;;;5044384;28;20753;-26
2023/12/06 09:12:24;;;;;;;0.00;0.00;;;8.00;80.30;;;;;;5047786;28;20315;-27
2023/12/06 09:14:53;;;;;;;0.00;0.00;;;8.00;80.30;;;;;;5052228;28;20211;-26
2023/12/06 09:17:21;;;;;;;0.00;0.00;;;8.00;80.30;;;;;;5047503;28;20733;-26
2023/12/06 09:19:50;;;;;;;0.00;0.00;;;8.00;80.30;;;;;;5048669;28;20218;-26
2023/12/06 09:22:19;;;;;;;0.00;0.00;;;8.00;80.30;;;;;;5053780;28;20231;-26
2023/12/06 09:24:52;;;;;;;0.00;0.00;;;8.00;80.30;;;;;;5056148;28;20203;-26
2023/12/06 09:27:22;;;;;;;0.00;0.00;;;8.00;80.30;;;;;;5068292;28;20215;-26
2023/12/06 09:29:49;;;;;;;0.00;0.00;;;8.00;80.40;;;;;;5064083;28;20200;-26
2023/12/06 09:32:19;;;;;;;0.00;0.00;;;8.00;80.40;;;;;;5053678;28;20219;-26
2023/12/06 09:34:49;;;;;;;0.00;0.00;;;8.10;80.50;;;;;;5056174;28;20214;-26
2023/12/06 09:37:17;;;;;;;0.00;0.00;;;8.10;81.20;;;;;;5049477;28;20220;-26
2023/12/06 09:39:44;;;;;;;0.00;0.00;;;8.10;80.40;;;;;;5044655;28;20987;-26
2023/12/06 09:42:13;;;;;;;0.00;0.00;;;8.10;80.40;;;;;;5044988;28;20200;-26
2023/12/06 09:44:46;;;;;;;0.00;0.00;;;8.10;80.40;;;;;;5047412;28;20212;-26
2023/12/06 09:47:13;;;;;;;0.00;0.00;;;8.20;80.40;;;;;;5057490;28;20218;-26
2023/12/06 09:49:44;;;;;;;0.00;0.00;;;8.20;80.40;;;;;;5046020;28;20231;-26
2023/12/06 09:52:18;;;;;;;0.00;0.00;;;8.20;80.50;;;;;;5052974;28;20693;-26
2023/12/06 09:54:48;;;;;;;0.00;0.00;;;8.20;80.50;;;;;;5063886;28;20210;-26
2023/12/06 09:57:18;;;;;;;0.00;0.00;;;8.20;80.50;;;;;;5056555;28;20599;-26
2023/12/06 09:59:51;;;;;;;0.00;0.00;;;8.20;81.30;;;;;;5078010;28;20707;-26
2023/12/06 10:02:21;;;;;;;0.00;0.00;;;8.20;80.60;;;;;;5064570;28;20223;-26
2023/12/06 10:04:49;;;;;;;0.00;0.00;;;8.30;80.60;;;;;;5051595;28;20207;-26
2023/12/06 10:07:20;;;;;;;0.00;0.00;;;8.30;80.60;;;;;;5060655;28;20231;-26
2023/12/06 10:09:53;;;;;;;0.00;0.00;;;8.30;80.60;;;;;;5067579;28;20192;-26
2023/12/06 10:12:21;;;;;;;0.00;0.00;;;8.30;80.60;;;;;;5040556;28;20270;-26
2023/12/06 10:15:10;;;;;;;0.00;0.00;;;8.40;80.60;;;;;;5046161;28;20690;-26
2023/12/06 10:17:38;;;;;;;0.00;0.00;;;8.40;80.60;;;;;;5050153;28;20235;-25
2023/12/06 10:20:08;;;;;;;0.00;0.00;;;8.40;80.60;;;;;;5071443;28;20204;-25
2023/12/06 10:22:38;;;;;;;0.00;0.00;;;8.40;80.60;;;;;;5045640;28;20299;-26
2023/12/06 10:25:08;;;;;;;0.00;0.00;;;8.40;80.60;;;;;;5046948;28;20211;-26
2023/12/06 10:27:39;;;;;;;0.00;0.00;;;8.40;80.60;;;;;;5045573;28;20207;-26
2023/12/06 10:30:08;;;;;;;0.00;0.00;;;8.40;80.60;;;;;;5045658;28;20240;-26
2023/12/06 10:32:35;;;;;;;0.00;0.00;;;8.50;80.70;;;;;;5053093;28;20600;-26
2023/12/06 10:35:10;;;;;;;0.00;0.00;;;8.50;80.70;;;;;;5056420;28;20193;-26
2023/12/06 10:37:38;;;;;;;0.00;0.00;;;8.50;80.70;;;;;;5056557;28;20211;-26
2023/12/06 10:40:11;;;;;;;0.00;0.00;;;8.50;80.70;;;;;;5056088;28;20199;-26
2023/12/06 10:42:48;;;;;;;0.00;0.00;;;8.50;80.70;;;;;;5050424;28;20280;-26
2023/12/06 10:45:20;;;;;;;0.00;0.00;;;8.60;80.80;;;;;;5049029;28;20202;-26
2023/12/06 10:47:51;;;;;;;0.00;0.00;;;8.60;80.80;;;;;;5056683;28;20223;-26
2023/12/06 10:50:22;;;;;;;0.00;0.00;;;8.60;80.80;;;;;;5049236;28;20656;-26
2023/12/06 10:52:53;;;;;;;0.00;0.00;;;8.60;80.80;;;;;;5069331;28;20299;-26
2023/12/06 10:55:29;;;;;;;0.00;0.00;;;8.60;80.80;;;;;;5051561;28;20202;-26
2023/12/06 10:58:00;;;;;;;0.00;0.00;;;8.70;80.90;;;;;;5048990;28;20937;-26
2023/12/06 11:00:30;;;;;;;0.00;0.00;;;8.70;80.90;;;;;;5064506;28;20203;-26
2023/12/06 11:03:01;;;;;;;0.00;0.00;;;8.70;80.90;;;;;;5064756;28;20212;-26
2023/12/06 11:05:37;;;;;;;0.00;0.00;;;8.70;80.90;;;;;;5047400;28;20248;-26
2023/12/06 11:08:23;;;;;;;0.00;0.00;;;8.80;80.90;;;;;;5047283;28;20194;-26
2023/12/06 11:11:02;;;;;;;0.00;0.00;;;8.80;80.90;;;;;;5065535;28;20199;-26
2023/12/06 11:14:21;;;;;;;0.00;0.00;;;8.80;80.80;;;;;;5060821;28;20215;-26
2023/12/06 11:17:04;;;;;;;0.00;0.00;;;8.80;80.80;;;;;;5032071;28;20212;-26
2023/12/06 11:19:35;;;;;;;0.00;0.00;;;8.80;80.70;;;;;;5044085;28;20217;-26
2023/12/06 11:22:03;;;;;;;0.00;0.00;;;8.80;80.90;;;;;;5046768;28;20220;-25
2023/12/06 11:24:31;;;;;;;0.00;0.00;;;8.80;80.90;;;;;;5044314;28;20254;-26
2023/12/06 11:27:03;;;;;;;0.00;0.00;;;8.80;80.80;;;;;;5048091;28;20222;-26
2023/12/06 11:29:30;;;;;;;0.00;0.00;;;8.80;80.80;;;;;;5052716;28;20656;-26
2023/12/06 11:31:58;;;;;;;0.00;0.00;;;8.90;80.80;;;;;;5060654;28;20392;-26
2023/12/06 11:34:36;;;;;;;0.00;0.00;;;8.90;80.80;;;;;;5059439;28;20678;-26
2023/12/06 11:37:08;;;;;;;0.00;0.00;;;8.90;80.90;;;;;;5058009;28;20314;-26
2023/12/06 11:39:38;;;;;;;0.00;0.00;;;8.90;80.90;;;;;;5049522;28;20256;-27
2023/12/06 11:42:08;;;;;;;0.00;0.00;;;8.90;80.80;;;;;;5047778;28;20366;-26
2023/12/06 11:44:35;;;;;;;0.00;0.00;;;8.90;80.80;;;;;;5051612;28;20242;-26
2023/12/06 11:47:07;;;;;;;0.00;0.00;;;8.90;80.80;;;;;;5062591;28;20227;-26
2023/12/06 11:49:37;;;;;;;0.00;0.00;;;9.00;81.00;;;;;;5066530;28;20223;-26
2023/12/06 11:52:10;;;;;;;0.00;0.00;;;9.00;80.90;;;;;;5051995;28;20583;-26
2023/12/06 11:54:46;;;;;;;0.00;0.00;;;9.00;81.00;;;;;;5053321;28;20207;-26
2023/12/06 11:57:15;;;;;;;0.00;0.00;;;9.00;81.10;;;;;;5047211;28;20241;-26
2023/12/06 11:59:46;;;;;;;0.00;0.00;;;9.00;81.00;;;;;;5048489;28;20196;-26
2023/12/06 12:02:17;;;;;;;0.00;0.00;;;9.10;81.10;;;;;;5066241;28;20211;-26
2023/12/06 12:04:48;;;;;;;0.00;0.00;;;9.10;81.20;;;;;;5061771;28;20589;-26
2023/12/06 12:07:17;;;;;;;0.00;0.00;;;9.10;81.20;;;;;;5048665;28;20273;-26
2023/12/06 12:09:46;;;;;;;0.00;0.00;;;9.10;81.00;;;;;;5070311;28;20215;-26
2023/12/06 12:12:16;;;;;;;0.00;0.00;;;9.10;80.90;;;;;;5058460;28;20915;-26
2023/12/06 12:14:44;;;;;;;0.00;0.00;;;9.20;80.90;;;;;;5061195;28;20347;-26
2023/12/06 12:17:11;;;;;;;0.00;0.00;;;9.20;80.90;;;;;;5058975;28;20258;-26
2023/12/06 12:19:41;;;;;;;0.00;0.00;;;9.20;81.00;;;;;;5057344;28;20343;-26
2023/12/06 12:22:11;;;;;;;0.00;0.00;;;9.20;81.00;;;;;;5047250;28;20208;-26
2023/12/06 12:24:39;;;;;;;0.00;0.00;;;9.20;81.00;;;;;;5053484;28;20211;-27
2023/12/06 12:27:09;;;;;;;0.00;0.00;;;9.20;81.00;;;;;;5057048;28;20253;-26
2023/12/06 12:29:41;;;;;;;0.00;0.00;;;9.20;81.00;;;;;;5076670;28;20200;-26
2023/12/06 12:32:08;;;;;;;0.00;0.00;;;9.20;81.00;;;;;;5068883;28;20192;-26
2023/12/06 12:34:36;;;;;;;0.00;0.00;;;9.20;81.00;;;;;;5072073;28;20211;-26
2023/12/06 12:37:04;;;;;;;0.00;0.00;;;9.30;81.00;;;;;;5059709;28;20434;-26
2023/12/06 12:39:36;;;;;;;0.00;0.00;;;9.30;81.00;;;;;;5054428;28;20228;-26
2023/12/06 12:42:10;;;;;;;0.00;0.00;;;9.30;80.90;;;;;;5079552;28;20305;-26
2023/12/06 12:44:37;;;;;;;0.00;0.00;;;9.30;80.90;;;;;;5085673;28;20751;-26
2023/12/06 12:47:05;;;;;;;0.00;0.00;;;9.30;80.90;;;;;;5055705;28;20764;-26
2023/12/06 12:49:40;;;;;;;0.00;0.00;;;9.30;80.80;;;;;;5058147;28;20234;-26
2023/12/06 12:52:08;;;;;;;0.00;0.00;;;9.30;80.80;;;;;;5072554;28;20195;-26
2023/12/06 12:54:37;;;;;;;0.00;0.00;;;9.30;80.80;;;;;;5057265;28;20750;-26
2023/12/06 12:57:05;;;;;;;0.00;0.00;;;9.30;80.80;;;;;;5054606;28;20204;-26
2023/12/06 12:59:42;;;;;;;0.00;0.00;;;9.30;80.80;;;;;;5045386;28;20242;-26
2023/12/06 13:02:13;;;;;;;0.00;0.00;;;9.30;80.80;;;;;;5030129;28;20886;-26
2023/12/06 13:04:40;;;;;;;0.00;0.00;;;9.30;80.80;;;;;;5061740;28;20295;-26
2023/12/06 13:07:12;;;;;;;0.00;0.00;;;9.20;80.90;;;;;;5063657;28;20235;-26
2023/12/06 13:09:44;;;;;;;0.00;0.00;;;9.20;80.80;;;;;;5048088;28;20528;-27
2023/12/06 13:12:11;;;;;;;0.00;0.00;;;9.30;80.80;;;;;;5048237;28;20206;-26